Trenton, NJ

7:31 AM EDT on June 30, 2015 (GMT -0400)
Morris Heights | | Change Station
CLOSE
Current Station
Personal Weather Station
Location: Morrisville, PA
Elevation: 89 ft
Nearby Weather Stations

Elev 89 ft 40.22 °N, 74.78 °W | Updated 5 seconds ago

Overcast
Overcast
68.0 °F
Feels Like 68.0 °F
N
3.3
Wind Variable Wind from SSW
Gusts 3.8 mph

Today
High -- | Low -- °F
--% Chance of Precip.
Yesterday
High -- | Low -- °F
Precip. -- in
5:32 AM 8:32 PM
Waxing Gibbous, 97% visible
Pressure 29.93 in
Visibility 8.0 miles
Clouds Mostly Cloudy 8000 ft
Dew Point 62 °F
Humidity 80%
Rainfall in
Snow Depth Not available.
UV 0 out of 12
Pollen 2.50 out of 12
Air Quality Not available.
Flu Activity Sporadic
METAR KTTN 300953Z 00000KT 8SM BKN080 17/15 A2995 RMK AO2 SLP135 T01670150

More Conditions Fewer Conditions

Pressure 29.93 in
Visibility 8.0 miles
Clouds Mostly Cloudy 8000 ft
Dew Point 62 °F
Humidity 80%
Rainfall in
Snow Depth Not available.
UV 0 out of 12
Pollen 2.50 out of 12
Air Quality Not available.
Flu Activity Sporadic
METAR KTTN 300953Z 00000KT 8SM BKN080 17/15 A2995 RMK AO2 SLP135 T01670150

More Conditions Fewer Conditions

10-Day Weather Forecast

×

Almanac

Astronomy

Jun. 30, 2015 Rise Set
Actual Time
Civil Twilight
Nautical Twilight
Astronomical Twilight
Moon
Length of Visible Light
Length of Day
Tomorrow will be .
, % of the Moon is Illuminated

Today's Extremes

State Highs State Lows

Community

WunderPhotos

Upload Photos

1,833,978 photos uploaded!

WunderBlogs® & News

Nearby

Air Quality

  Air Quality AQ Index Pollutant
Not available.

Snow Depth

Station Depth Elevation

Earthquake Activity

City Distance Mag. Time & Date
Minimum magnitude displayed is 2.5.

Coastal Water Temperatures

Place Temperature

Stations

Nearby Weather Stations

Station Location Temp. Windchill Dew Point Humidity Wind Precip. Elev Updated Type